METAR Data
IDs: Format: Raw Decoded Include TAF

Data at: 1333 UTC 10 Aug 2022

KWVI 101253Z AUTO 35003KT 10SM CLR 12/11 A3004 RMK AO2 SLP174 T01170111
KWVI 101153Z AUTO 34003KT 10SM CLR 13/12 A3004 RMK AO2 SLP171 T01280117 10167 20128 55000
KWVI 101053Z AUTO 35004KT 10SM CLR 13/12 A3003 RMK AO2 SLP169 T01330117
KWVI 100953Z AUTO 33003KT 10SM CLR 13/13 A3004 RMK AO2 SLP170 T01330128
KWVI 100853Z AUTO 34003KT 10SM CLR 16/13 A3004 RMK AO2 SLP170 T01560133 50001
KWVI 100753Z AUTO 00000KT 10SM CLR 16/14 A3004 RMK AO2 SLP172 T01560139 402560117
KWVI 100738Z AUTO 00000KT 10SM SCT011 16/14 A3005 RMK AO2 T01610139
KWVI 100714Z AUTO 00000KT 10SM BKN010 16/14 A3004 RMK AO2 T01610139
KWVI 100653Z AUTO 00000KT 10SM SCT010 16/14 A3004 RMK AO2 SLP171 T01610139
KWVI 100641Z AUTO 00000KT 10SM SCT011 16/14 A3004 RMK AO2 T01610139
KWVI 100553Z AUTO 04004KT 10SM OVC011 16/14 A3004 RMK AO2 SLP169 T01610144 10222 20161 53014
KWVI 100453Z AUTO 09007KT 10SM OVC010 16/14 A3002 RMK AO2 SLP166 T01610144
KWVI 100425Z AUTO 09006KT 10SM OVC010 16/14 A3002 RMK AO2 T01610144
KWVI 100353Z AUTO 12008KT 10SM OVC009 16/14 A3000 RMK AO2 SLP159 T01610144
KWVI 100314Z AUTO 14008KT 10SM BKN009 17/14 A3000 RMK AO2 T01670144
KWVI 100305Z AUTO 15007KT 10SM SCT009 16/14 A3000 RMK AO2 T01610144
KWVI 100253Z AUTO 15007KT 10SM CLR 17/14 A3000 RMK AO2 SLP157 T01670139 53006
KWVI 100153Z AUTO 12005KT 10SM CLR 19/14 A2998 RMK AO2 SLP150 T01940144
KWVI 100053Z AUTO 21006KT 10SM CLR 21/14 A2998 RMK AO2 SLP151 T02110144
KWVI 092353Z AUTO 27009KT 10SM CLR 22/14 A2998 RMK AO2 SLP151 T02170144 10256 20217 56007
KWVI 092253Z AUTO 27008KT 10SM CLR 23/14 A2998 RMK AO2 SLP151 T02280144
KWVI 092153Z AUTO 23009KT 10SM CLR 24/13 A2999 RMK AO2 SLP152 T02390133
KWVI 092053Z AUTO 24008KT 10SM CLR 24/14 A3000 RMK AO2 SLP156 T02390139 58005
KWVI 091953Z AUTO 26011KT 10SM CLR 23/13 A3001 RMK AO2 SLP159 T02330133
KWVI 091853Z AUTO 25009KT 210V280 10SM CLR 24/14 A3001 RMK AO2 SLP162 T02390139
KWVI 091753Z AUTO VRB05KT 10SM CLR 23/14 A3001 RMK AO2 SLP161 T02280139 10233 20128 58002
KWVI 091653Z AUTO 17004KT 10SM CLR 19/14 A3002 RMK AO2 SLP162 T01940139
KWVI 091605Z AUTO 00000KT 10SM SCT006 17/14 A3002 RMK AO2 T01720139
KWVI 091553Z AUTO 02003KT 10SM OVC005 16/14 A3002 RMK AO2 SLP166 T01610139
KWVI 091533Z AUTO 00000KT 10SM OVC005 15/14 A3002 RMK AO2 T01500139
KWVI 091453Z AUTO 10003KT 10SM OVC007 15/13 A3002 RMK AO2 SLP164 T01500133 53013
KWVI 091421Z AUTO 00000KT 10SM OVC007 13/13 A3001 RMK AO2 T01330128
KWVI 091400Z AUTO 00000KT 10SM OVC005 13/13 A3000 RMK AO2 T01330128
KWVI 091353Z AUTO 00000KT 10SM OVC003 13/12 A3000 RMK AO2 SLP159 T01280122
KWVI 091342Z AUTO 00000KT 3SM BR OVC003 13/13 A3000 RMK AO2 T01280128
KWVI 091340Z AUTO 00000KT 1 1/2SM BR OVC003 13/13 A3000 RMK AO2 VIS 1/2V5 T01280128
KWVI 091317Z AUTO 00000KT 3/4SM BR OVC002 13/13 A2999 RMK AO2 T01280128
KWVI 091313Z AUTO VRB03KT 1 3/4SM BR OVC002 13/13 A2999 RMK AO2 T01280128
KWVI 091253Z AUTO 00000KT 10SM BKN002 BKN006 13/12 A2999 RMK AO2 SLP154 T01280122
KWVI 091207Z AUTO 36003KT 10SM OVC005 13/12 A2998 RMK AO2 T01330117
KWVI 091153Z AUTO 35003KT 10SM BKN004 13/12 A2998 RMK AO2 SLP151 T01330117 10172 20117 53003
KWVI 091148Z AUTO 00000KT 10SM SCT004 13/12 A2998 RMK AO2
KWVI 091053Z AUTO 00000KT 10SM CLR 13/12 A2997 RMK AO2 SLP146 T01330117
KWVI 090953Z AUTO 00000KT 10SM CLR 13/12 A2997 RMK AO2 SLP147 T01280117
KWVI 090853Z AUTO 00000KT 10SM CLR 14/12 A2997 RMK AO2 SLP148 T01440122 58003
KWVI 090753Z AUTO 32004KT 10SM CLR 15/13 A2998 RMK AO2 SLP150 T01500128 402670111
KWVI 090653Z AUTO 00000KT 10SM CLR 15/13 A2998 RMK AO2 SLP152 T01500128
KWVI 090553Z AUTO 00000KT 10SM CLR 17/13 A2998 RMK AO2 SLP150 T01670133 10267 20161 50010
KWVI 090453Z AUTO 09004KT 10SM CLR 17/13 A2998 RMK AO2 SLP151 T01670133
KWVI 090353Z AUTO 14007KT 10SM CLR 16/13 A2996 RMK AO2 SLP146 T01610133
KWVI 090253Z AUTO 15009KT 10SM CLR 18/13 A2995 RMK AO2 SLP141 T01830133 53006
KWVI 090153Z AUTO 15009KT 10SM CLR 20/13 A2994 RMK AO2 SLP137 T02000133